• Join FlightAware (Why Join?)
  • Login
  • US Flag 
04:49AM EDT


 

Airport Tracker/Info


-or-


 

Live Flight TrackerFlight Track Log ✈ UAL3833 ✈ 07-May-2013 ✈ KEWR - KCVG

Flight Track Log - Related Links

Times and Time Zones

All times are in EDT time to prevent confusion due to time zone crossing. See the UAL3833 flight status page for this flight to view local times or setup timezone preferences in your user account.

Time Position Orientation Groundspeed Altitude Reporting Facility
EDT Latitude Longitude Course Direction KTS MPH feet Rate Location/Type
05:32PM 40.6500 -74.1833 258° West 168 193 1,800  Level New York TRACON
05:33PM 40.6500 -74.2500 270° West 236 272 3,900 2,220 Climbing New York TRACON
05:34PM 40.6500 -74.3500 270° West 271 312 6,300 2,460 Climbing New York TRACON
05:35PM 40.6833 -74.7196 270° West  Level FlightAware Approximate
05:35PM 40.6667 -74.4333 285° West 285 328 8,900  Level New York TRACON
05:36PM 40.6834 -74.8578 270° West  Level FlightAware Approximate
05:36PM 40.7000 -74.5500 291° West 309 356 10,600  Level New York TRACON
05:37PM 40.6786 -74.9953 258° West  Level FlightAware Approximate
05:37PM 40.7278 -74.6897 285° West 350 403 12,300  Level New York Center
05:38PM 40.7256 -74.8156 269° West 343 395 13,900 1,620 Climbing New York Center
05:39PM 40.7067 -74.9458 259° West 352 405 15,700 1,620 Climbing New York Center
05:40PM 40.6811 -75.0756 255° West 366 421 17,200 1,380 Climbing New York Center
05:41PM 40.6308 -75.1928 241° Southwest 371 427 18,500 1,320 Climbing New York Center
05:42PM 40.5783 -75.3122 240° Southwest 378 435 19,900 1,380 Climbing New York Center
05:43PM 40.5236 -75.4317 239° Southwest 383 441 21,300 1,380 Climbing New York Center
05:45PM 40.4164 -75.6614 239° Southwest 390 449 24,200 1,380 Climbing New York Center
05:46PM 40.3614 -75.7803 239° Southwest 390 449 25,600 1,440 Climbing New York Center
05:47PM 40.2953 -75.9169 238° Southwest 390 449 27,100 1,500 Climbing New York Center
05:48PM 40.2397 -76.0381 239° Southwest 395 455 28,600 1,380 Climbing New York Center
05:49PM 40.1822 -76.1586 238° Southwest 395 455 30,000 1,320 Climbing New York Center
05:50PM 40.1317 -76.2633 238° Southwest 397 457 31,300 960 Climbing New York Center
05:51PM 40.0756 -76.3892 240° Southwest 402 463 32,000 300 Climbing New York Center
05:52PM 40.0150 -76.5225 239° Southwest 409 471 32,000  Level New York Center
05:54PM 39.8636 -76.8375 238° Southwest 464 534 32,000  Level Washington Center
05:55PM 39.7908 -76.9931 239° Southwest 459 528 32,000 120 Level Washington Center
05:56PM 39.7247 -77.1347 239° Southwest 459 528 32,300 840 Climbing Washington Center
05:57PM 39.6603 -77.2708 238° Southwest 459 528 33,800 1,440 Climbing Washington Center
05:58PM 39.5958 -77.4067 238° Southwest 459 528 35,300 1,080 Climbing Washington Center
05:59PM 39.5311 -77.5422 238° Southwest 452 520 36,000 300 Climbing Washington Center
06:00PM 39.4686 -77.6778 239° Southwest 451 519 36,000  Level Washington Center
06:01PM 39.4014 -77.8156 238° Southwest 451 519 36,000  Level Washington Center
06:02PM 39.3403 -77.9611 242° Southwest 451 519 36,000  Level Washington Center
06:03PM 39.2831 -78.1094 244° Southwest 457 526 36,000  Level Washington Center
06:04PM 39.2214 -78.2600 242° Southwest 467 537 36,000  Level Washington Center
06:05PM 39.1639 -78.4053 243° Southwest 467 537 36,000  Level Washington Center
06:06PM 39.1064 -78.5475 243° Southwest 467 537 36,000  Level Washington Center
06:07PM 39.0486 -78.6894 242° Southwest 461 531 36,000  Level Washington Center
06:08PM 38.9928 -78.8314 243° Southwest 456 525 36,000 -60 Level Washington Center
06:09PM 38.9325 -78.9753 242° Southwest 456 525 35,900 -600 Descending Washington Center
06:10PM 38.8764 -79.1169 243° Southwest 456 525 34,900 -960 Descending Washington Center
06:11PM 38.8158 -79.2606 242° Southwest 456 525 34,000 -480 Descending Washington Center
06:12PM 38.7572 -79.3986 241° Southwest 471 542 34,000 -240 Level Washington Center
06:13PM 38.6919 -79.5494 241° Southwest 476 548 33,600 -780 Descending Washington Center
06:14PM 38.6628 -79.7289 258° West 476 548 32,500 -840 Descending Washington Center
06:15PM 38.6672 -79.9019 272° West 476 548 32,000 -180 Descending Washington Center
06:17PM 38.6800 -80.2036 273° West 488 562 32,000  Level Indianapolis Center
06:18PM 38.6897 -80.4086 274° West 482 555 32,000  Level Indianapolis Center
06:19PM 38.6983 -80.5819 274° West 488 562 32,000  Level Indianapolis Center
06:20PM 38.7067 -80.7575 274° West 494 568 32,000  Level Indianapolis Center
06:21PM 38.7139 -80.9336 273° West 497 572 32,000  Level Indianapolis Center
06:22PM 38.7214 -81.1064 273° West 490 564 32,000  Level Indianapolis Center
06:23PM 38.7278 -81.2786 273° West 487 560 32,000 -180 Level Indianapolis Center
06:24PM 38.7344 -81.4708 273° West 481 554 31,700 -720 Descending Indianapolis Center
06:25PM 38.7419 -81.6417 273° West 481 554 30,600 -1,020 Descending Indianapolis Center
06:26PM 38.7381 -81.8097 268° West 483 556 29,600 -1,080 Descending Indianapolis Center
06:27PM 38.6956 -82.0108 255° West 490 564 28,400 -1,080 Descending Indianapolis Center
06:28PM 38.6592 -82.1742 254° West 482 555 27,400 -1,020 Descending Indianapolis Center
06:29PM 38.6256 -82.3256 254° West 451 519 26,300 -1,020 Descending Indianapolis Center
06:30PM 38.5922 -82.4775 254° West 445 512 25,300 -1,020 Descending Indianapolis Center
06:31PM 38.5581 -82.6242 253° West 438 504 24,300 -840 Descending Indianapolis Center
06:33PM 38.5194 -82.7953 254° West 431 496 23,600 -960 Descending Indianapolis Center
06:34PM 38.4861 -82.9394 254° West 426 490 22,400 -1,200 Descending Indianapolis Center
06:35PM 38.4875 -83.0797 271° West 400 460 21,200 -1,140 Descending Indianapolis Center
06:36PM 38.5086 -83.2189 281° West 399 459 20,100 -600 Descending Indianapolis Center
06:37PM 38.5300 -83.3594 281° West 403 464 20,000 -1,620 Descending Indianapolis Center
06:38PM 38.5533 -83.5158 281° West 387 445 16,800 -2,640 Descending Indianapolis Center
06:39PM 38.5731 -83.6439 281° West 372 428 14,600 -2,220 Descending Indianapolis Center
06:40PM 38.5900 -83.7622 280° West 343 395 12,300 -2,040 Descending Indianapolis Center
06:41PM 38.6064 -83.8747 281° West 328 377 10,400 -1,140 Descending Indianapolis Center
06:42PM 38.6100 -83.9942 272° West 345 397 10,000 -660 Descending Indianapolis Center
06:43PM 38.5956 -84.1178 262° West 304 350 9,100 -540 Descending Indianapolis Center
06:44PM 38.5828 -84.2100 260° West 269 310 8,900 -540 Descending Indianapolis Center
06:45PM 38.5858 -84.2997 273° West 265 305 8,000 -480 Descending Indianapolis Center
06:46PM 38.6114 -84.3825 292° West 252 290 8,000  Level Indianapolis Center
06:47PM 38.6375 -84.4639 292° West 249 287 8,000 -540 Level Indianapolis Center
06:48PM 38.6719 -84.5597 295° West 251 289 7,000 -960 Descending Indianapolis Center
06:49PM 38.7158 -84.6269 310° West 247 284 6,100 -960 Descending Indianapolis Center
06:50PM 38.7733 -84.6717 329° Northwest 252 290 5,100 -720 Descending Indianapolis Center
06:51PM 38.8331 -84.6678 North 221 254 4,700 -300 Descending Indianapolis Center
06:52PM 38.8872 -84.6725 356° North 214 246 4,500 -1,020 Descending Indianapolis Center
06:53PM 38.9167 -84.6667 North 176 203 3,100 -1,440 Descending Cincinnati TRACON
06:54PM 38.9667 -84.6667 360° North 170 196 2,100 -840 Descending Cincinnati TRACON
06:55PM 39.0000 -84.6667 360° North 145 167 1,500 -240 Descending Cincinnati TRACON
06:56PM 39.0500 -84.6667 360° North 146 168 1,700 900 Climbing Cincinnati TRACON
06:57PM 39.1000 -84.6833 345° North 211 243 3,600 1,140 Climbing Cincinnati TRACON
06:58PM 39.1167 -84.7500 288° West 223 257 4,000 180 Climbing Cincinnati TRACON
06:59PM 39.0667 -84.7667 195° South 239 275 4,000  Level Cincinnati TRACON
07:00PM 39.0000 -84.7833 191° South 217 250 4,000 -60 Level Cincinnati TRACON
07:01PM 38.9333 -84.7833 180° South 204 235 3,900 -480 Descending Cincinnati TRACON
07:02PM 38.9000 -84.7833 180° South 196 226 3,100 -660 Descending Cincinnati TRACON
07:03PM 38.8833 -84.7167 108° East 178 205 2,700 -360 Descending Cincinnati TRACON
07:04PM 38.9167 -84.6667 49° Northeast 176 203 2,400 -300 Descending Cincinnati TRACON